sensor_id;sensor_type;location;lat;lon;timestamp;pressure;altitude;pressure_sealevel;temperature;humidity
75650;BME280;64245;51.282;22.494;2023-02-25T00:01:14;97042.34;;;3.58;100.00
75650;BME280;64245;51.282;22.494;2023-02-25T00:03:40;97049.38;;;3.67;100.00
75650;BME280;64245;51.282;22.494;2023-02-25T00:06:08;97052.31;;;3.56;100.00
75650;BME280;64245;51.282;22.494;2023-02-25T00:08:34;97052.06;;;3.67;100.00
75650;BME280;64245;51.282;22.494;2023-02-25T00:11:02;97050.44;;;3.74;100.00
75650;BME280;64245;51.282;22.494;2023-02-25T00:13:28;97037.41;;;3.63;100.00
75650;BME280;64245;51.282;22.494;2023-02-25T00:15:55;97022.00;;;3.49;100.00
75650;BME280;64245;51.282;22.494;2023-02-25T00:18:27;97005.34;;;3.47;100.00
75650;BME280;64245;51.282;22.494;2023-02-25T00:20:53;97024.28;;;3.70;100.00
75650;BME280;64245;51.282;22.494;2023-02-25T00:23:19;97011.97;;;3.69;100.00
75650;BME280;64245;51.282;22.494;2023-02-25T00:25:45;97003.16;;;3.68;100.00
75650;BME280;64245;51.282;22.494;2023-02-25T00:28:11;97014.44;;;3.62;100.00
75650;BME280;64245;51.282;22.494;2023-02-25T00:30:38;97000.16;;;3.63;100.00
75650;BME280;64245;51.282;22.494;2023-02-25T00:33:04;96991.03;;;3.74;100.00
75650;BME280;64245;51.282;22.494;2023-02-25T00:35:33;96974.03;;;3.67;100.00
75650;BME280;64245;51.282;22.494;2023-02-25T00:38:02;96960.16;;;3.55;100.00
75650;BME280;64245;51.282;22.494;2023-02-25T00:40:28;96973.53;;;3.63;100.00
75650;BME280;64245;51.282;22.494;2023-02-25T00:42:54;96971.41;;;3.75;100.00
75650;BME280;64245;51.282;22.494;2023-02-25T00:45:20;96967.84;;;3.58;100.00
75650;BME280;64245;51.282;22.494;2023-02-25T00:47:45;96965.41;;;3.73;100.00
75650;BME280;64245;51.282;22.494;2023-02-25T00:50:11;96966.97;;;3.84;100.00
75650;BME280;64245;51.282;22.494;2023-02-25T00:52:38;96967.75;;;3.76;100.00
75650;BME280;64245;51.282;22.494;2023-02-25T00:55:05;96952.72;;;3.67;100.00
75650;BME280;64245;51.282;22.494;2023-02-25T00:57:31;96962.91;;;3.71;100.00
75650;BME280;64245;51.282;22.494;2023-02-25T00:59:57;96952.63;;;3.76;100.00
75650;BME280;64245;51.282;22.494;2023-02-25T01:02:22;96933.28;;;3.66;100.00
75650;BME280;64245;51.282;22.494;2023-02-25T01:04:48;96928.44;;;3.62;100.00
75650;BME280;64245;51.282;22.494;2023-02-25T01:07:15;96924.97;;;3.69;100.00
75650;BME280;64245;51.282;22.494;2023-02-25T01:09:41;96935.66;;;3.77;100.00
75650;BME280;64245;51.282;22.494;2023-02-25T01:12:07;96934.63;;;3.70;100.00
75650;BME280;64245;51.282;22.494;2023-02-25T01:14:33;96939.78;;;3.72;100.00
75650;BME280;64245;51.282;22.494;2023-02-25T01:16:58;96932.31;;;3.75;100.00
75650;BME280;64245;51.282;22.494;2023-02-25T01:19:27;96937.34;;;3.78;100.00
75650;BME280;64245;51.282;22.494;2023-02-25T01:21:56;96924.44;;;3.58;100.00
75650;BME280;64245;51.282;22.494;2023-02-25T01:26:51;96915.91;;;3.46;100.00
75650;BME280;64245;51.282;22.494;2023-02-25T01:29:26;96900.34;;;3.33;100.00
75650;BME280;64245;51.282;22.494;2023-02-25T01:34:19;96915.91;;;3.46;100.00
75650;BME280;64245;51.282;22.494;2023-02-25T01:36:45;96923.38;;;3.51;100.00
75650;BME280;64245;51.282;22.494;2023-02-25T01:39:13;96883.53;;;3.25;100.00
75650;BME280;64245;51.282;22.494;2023-02-25T01:41:39;96916.38;;;3.41;100.00
75650;BME280;64245;51.282;22.494;2023-02-25T01:46:46;96890.94;;;3.47;100.00
75650;BME280;64245;51.282;22.494;2023-02-25T01:49:21;96882.56;;;3.34;100.00
75650;BME280;64245;51.282;22.494;2023-02-25T01:51:51;96874.44;;;3.35;100.00
75650;BME280;64245;51.282;22.494;2023-02-25T01:54:19;96859.59;;;3.25;100.00
75650;BME280;64245;51.282;22.494;2023-02-25T01:56:48;96855.81;;;3.35;100.00
75650;BME280;64245;51.282;22.494;2023-02-25T01:59:17;96851.00;;;3.39;100.00
75650;BME280;64245;51.282;22.494;2023-02-25T02:01:45;96830.50;;;3.31;100.00
75650;BME280;64245;51.282;22.494;2023-02-25T02:04:12;96850.63;;;3.26;100.00
75650;BME280;64245;51.282;22.494;2023-02-25T02:06:44;96850.72;;;3.16;100.00
75650;BME280;64245;51.282;22.494;2023-02-25T02:09:14;96854.75;;;3.20;100.00
75650;BME280;64245;51.282;22.494;2023-02-25T02:11:41;96841.16;;;3.31;100.00
75650;BME280;64245;51.282;22.494;2023-02-25T02:14:09;96814.50;;;3.15;100.00
75650;BME280;64245;51.282;22.494;2023-02-25T02:19:33;96829.28;;;3.18;100.00
75650;BME280;64245;51.282;22.494;2023-02-25T02:22:12;96833.00;;;3.33;100.00
75650;BME280;64245;51.282;22.494;2023-02-25T02:27:47;96808.03;;;3.18;100.00
75650;BME280;64245;51.282;22.494;2023-02-25T02:30:34;96793.53;;;3.12;100.00
75650;BME280;64245;51.282;22.494;2023-02-25T02:36:12;96818.09;;;3.40;100.00
75650;BME280;64245;51.282;22.494;2023-02-25T02:38:44;96812.19;;;3.20;100.00
75650;BME280;64245;51.282;22.494;2023-02-25T02:41:32;96837.06;;;3.45;100.00
75650;BME280;64245;51.282;22.494;2023-02-25T02:44:11;96855.84;;;3.43;100.00
75650;BME280;64245;51.282;22.494;2023-02-25T02:46:44;96846.47;;;3.31;100.00
75650;BME280;64245;51.282;22.494;2023-02-25T02:49:34;96821.19;;;3.27;100.00
75650;BME280;64245;51.282;22.494;2023-02-25T02:52:05;96829.69;;;3.31;100.00
75650;BME280;64245;51.282;22.494;2023-02-25T02:54:34;96819.09;;;3.39;100.00
75650;BME280;64245;51.282;22.494;2023-02-25T02:57:01;96808.59;;;3.37;100.00
75650;BME280;64245;51.282;22.494;2023-02-25T02:59:33;96821.28;;;3.43;100.00
75650;BME280;64245;51.282;22.494;2023-02-25T03:02:03;96803.06;;;3.31;100.00
75650;BME280;64245;51.282;22.494;2023-02-25T03:04:32;96789.94;;;3.29;100.00
75650;BME280;64245;51.282;22.494;2023-02-25T03:07:05;96781.47;;;3.26;100.00
75650;BME280;64245;51.282;22.494;2023-02-25T03:09:46;96798.16;;;3.44;100.00
75650;BME280;64245;51.282;22.494;2023-02-25T03:12:13;96761.16;;;3.17;100.00
75650;BME280;64245;51.282;22.494;2023-02-25T03:14:39;96784.84;;;3.44;100.00
75650;BME280;64245;51.282;22.494;2023-02-25T03:17:25;96796.81;;;3.40;100.00
75650;BME280;64245;51.282;22.494;2023-02-25T03:20:02;96780.00;;;3.39;100.00
75650;BME280;64245;51.282;22.494;2023-02-25T03:22:34;96786.00;;;3.41;100.00
75650;BME280;64245;51.282;22.494;2023-02-25T03:25:12;96786.66;;;3.35;100.00
75650;BME280;64245;51.282;22.494;2023-02-25T03:27:41;96758.84;;;3.30;100.00
75650;BME280;64245;51.282;22.494;2023-02-25T03:30:08;96769.22;;;3.41;100.00
75650;BME280;64245;51.282;22.494;2023-02-25T03:32:41;96747.91;;;3.33;100.00
75650;BME280;64245;51.282;22.494;2023-02-25T03:35:08;96783.03;;;3.53;100.00
75650;BME280;64245;51.282;22.494;2023-02-25T03:37:37;96766.03;;;3.37;100.00
75650;BME280;64245;51.282;22.494;2023-02-25T03:40:06;96773.13;;;3.21;100.00
75650;BME280;64245;51.282;22.494;2023-02-25T03:42:38;96794.00;;;3.41;100.00
75650;BME280;64245;51.282;22.494;2023-02-25T03:45:06;96775.50;;;3.32;100.00
75650;BME280;64245;51.282;22.494;2023-02-25T03:47:36;96769.53;;;3.38;100.00
75650;BME280;64245;51.282;22.494;2023-02-25T03:50:16;96773.03;;;3.46;100.00
75650;BME280;64245;51.282;22.494;2023-02-25T03:52:44;96763.00;;;3.24;100.00
75650;BME280;64245;51.282;22.494;2023-02-25T03:55:10;96758.53;;;3.33;100.00
75650;BME280;64245;51.282;22.494;2023-02-25T03:57:39;96740.22;;;3.22;100.00
75650;BME280;64245;51.282;22.494;2023-02-25T04:00:34;96766.72;;;3.47;100.00
75650;BME280;64245;51.282;22.494;2023-02-25T04:02:59;96755.09;;;3.40;100.00
75650;BME280;64245;51.282;22.494;2023-02-25T04:05:26;96735.19;;;3.10;100.00
75650;BME280;64245;51.282;22.494;2023-02-25T04:07:56;96745.06;;;3.34;100.00
75650;BME280;64245;51.282;22.494;2023-02-25T04:10:22;96754.59;;;3.53;100.00
75650;BME280;64245;51.282;22.494;2023-02-25T04:12:48;96742.53;;;3.17;100.00
75650;BME280;64245;51.282;22.494;2023-02-25T04:15:18;96719.06;;;3.04;100.00
75650;BME280;64245;51.282;22.494;2023-02-25T04:17:44;96720.47;;;2.82;100.00
75650;BME280;64245;51.282;22.494;2023-02-25T04:20:14;96741.53;;;3.18;100.00
75650;BME280;64245;51.282;22.494;2023-02-25T04:22:41;96744.97;;;3.02;100.00
75650;BME280;64245;51.282;22.494;2023-02-25T04:25:07;96727.41;;;2.75;100.00
75650;BME280;64245;51.282;22.494;2023-02-25T04:27:33;96738.56;;;2.78;100.00
75650;BME280;64245;51.282;22.494;2023-02-25T04:29:59;96745.47;;;2.71;100.00
75650;BME280;64245;51.282;22.494;2023-02-25T04:32:25;96755.94;;;2.73;100.00
75650;BME280;64245;51.282;22.494;2023-02-25T04:34:50;96760.75;;;2.69;100.00
75650;BME280;64245;51.282;22.494;2023-02-25T04:37:16;96753.25;;;2.65;100.00
75650;BME280;64245;51.282;22.494;2023-02-25T04:39:42;96738.84;;;2.67;100.00
75650;BME280;64245;51.282;22.494;2023-02-25T04:42:08;96745.91;;;2.59;100.00
75650;BME280;64245;51.282;22.494;2023-02-25T04:44:34;96770.59;;;2.51;100.00
75650;BME280;64245;51.282;22.494;2023-02-25T04:47:00;96767.09;;;2.51;100.00
75650;BME280;64245;51.282;22.494;2023-02-25T04:49:26;96756.06;;;2.37;100.00
75650;BME280;64245;51.282;22.494;2023-02-25T04:51:51;96754.50;;;2.53;100.00
75650;BME280;64245;51.282;22.494;2023-02-25T04:54:18;96755.44;;;2.69;100.00
75650;BME280;64245;51.282;22.494;2023-02-25T04:56:44;96744.16;;;2.67;100.00
75650;BME280;64245;51.282;22.494;2023-02-25T04:59:11;96760.75;;;2.69;100.00
75650;BME280;64245;51.282;22.494;2023-02-25T05:01:38;96758.28;;;2.68;100.00
75650;BME280;64245;51.282;22.494;2023-02-25T05:04:03;96747.91;;;2.57;100.00
75650;BME280;64245;51.282;22.494;2023-02-25T05:06:29;96748.06;;;2.55;100.00
75650;BME280;64245;51.282;22.494;2023-02-25T05:08:56;96739.56;;;2.52;100.00
75650;BME280;64245;51.282;22.494;2023-02-25T05:11:24;96752.50;;;2.47;100.00
75650;BME280;64245;51.282;22.494;2023-02-25T05:13:50;96748.47;;;2.42;100.00
75650;BME280;64245;51.282;22.494;2023-02-25T05:16:17;96741.50;;;2.41;100.00
75650;BME280;64245;51.282;22.494;2023-02-25T05:18:45;96749.09;;;2.36;100.00
75650;BME280;64245;51.282;22.494;2023-02-25T05:21:14;96759.19;;;2.59;100.00
75650;BME280;64245;51.282;22.494;2023-02-25T05:23:40;96753.34;;;2.47;100.00
75650;BME280;64245;51.282;22.494;2023-02-25T05:26:08;96758.00;;;2.53;100.00
75650;BME280;64245;51.282;22.494;2023-02-25T05:28:34;96751.38;;;2.57;100.00
75650;BME280;64245;51.282;22.494;2023-02-25T05:31:04;96740.28;;;2.62;100.00
75650;BME280;64245;51.282;22.494;2023-02-25T05:33:29;96745.00;;;2.42;100.00
75650;BME280;64245;51.282;22.494;2023-02-25T05:35:55;96749.88;;;2.55;100.00
75650;BME280;64245;51.282;22.494;2023-02-25T05:38:21;96740.06;;;2.47;100.00
75650;BME280;64245;51.282;22.494;2023-02-25T05:40:46;96749.25;;;2.35;100.00
75650;BME280;64245;51.282;22.494;2023-02-25T05:43:12;96748.16;;;2.46;100.00
75650;BME280;64245;51.282;22.494;2023-02-25T05:45:38;96762.63;;;2.51;100.00
75650;BME280;64245;51.282;22.494;2023-02-25T05:48:03;96766.25;;;2.42;100.00
75650;BME280;64245;51.282;22.494;2023-02-25T05:50:30;96743.91;;;2.27;100.00
75650;BME280;64245;51.282;22.494;2023-02-25T05:52:59;96753.63;;;2.44;100.00
75650;BME280;64245;51.282;22.494;2023-02-25T05:55:25;96755.16;;;2.47;100.00
75650;BME280;64245;51.282;22.494;2023-02-25T05:57:51;96749.75;;;2.30;100.00
75650;BME280;64245;51.282;22.494;2023-02-25T06:00:17;96756.06;;;2.37;100.00
75650;BME280;64245;51.282;22.494;2023-02-25T06:02:47;96752.88;;;2.34;100.00
75650;BME280;64245;51.282;22.494;2023-02-25T06:05:13;96740.41;;;2.26;100.00
75650;BME280;64245;51.282;22.494;2023-02-25T06:07:38;96749.94;;;2.37;100.00
75650;BME280;64245;51.282;22.494;2023-02-25T06:10:04;96749.09;;;2.36;100.00
75650;BME280;64245;51.282;22.494;2023-02-25T06:12:32;96754.41;;;2.36;100.00
75650;BME280;64245;51.282;22.494;2023-02-25T06:14:58;96751.94;;;2.17;100.00
75650;BME280;64245;51.282;22.494;2023-02-25T06:17:24;96762.00;;;2.31;100.00
75650;BME280;64245;51.282;22.494;2023-02-25T06:19:51;96735.78;;;2.28;100.00
75650;BME280;64245;51.282;22.494;2023-02-25T06:22:21;96772.59;;;2.49;100.00
75650;BME280;64245;51.282;22.494;2023-02-25T06:24:47;96760.56;;;2.37;100.00
75650;BME280;64245;51.282;22.494;2023-02-25T06:27:13;96774.50;;;2.39;100.00
75650;BME280;64245;51.282;22.494;2023-02-25T06:29:39;96776.91;;;2.24;100.00
75650;BME280;64245;51.282;22.494;2023-02-25T06:32:15;96786.81;;;2.40;100.00
75650;BME280;64245;51.282;22.494;2023-02-25T06:34:41;96765.13;;;2.27;100.00
75650;BME280;64245;51.282;22.494;2023-02-25T06:37:07;96790.97;;;2.42;100.00
75650;BME280;64245;51.282;22.494;2023-02-25T06:39:33;96789.22;;;2.33;100.00
75650;BME280;64245;51.282;22.494;2023-02-25T06:41:59;96775.47;;;2.30;100.00
75650;BME280;64245;51.282;22.494;2023-02-25T06:44:25;96772.97;;;2.28;100.00
75650;BME280;64245;51.282;22.494;2023-02-25T06:46:52;96782.59;;;2.29;99.93
75650;BME280;64245;51.282;22.494;2023-02-25T06:49:20;96800.69;;;2.34;100.00
75650;BME280;64245;51.282;22.494;2023-02-25T06:51:46;96799.72;;;2.35;100.00
75650;BME280;64245;51.282;22.494;2023-02-25T06:54:15;96780.63;;;2.14;100.00
75650;BME280;64245;51.282;22.494;2023-02-25T06:56:41;96787.44;;;2.16;100.00
75650;BME280;64245;51.282;22.494;2023-02-25T06:59:07;96799.19;;;2.31;99.51
75650;BME280;64245;51.282;22.494;2023-02-25T07:01:33;96803.44;;;2.24;99.48
75650;BME280;64245;51.282;22.494;2023-02-25T07:03:59;96794.13;;;2.20;99.43
75650;BME280;64245;51.282;22.494;2023-02-25T07:06:24;96793.25;;;2.12;99.79
75650;BME280;64245;51.282;22.494;2023-02-25T07:08:50;96803.63;;;2.05;99.87
75650;BME280;64245;51.282;22.494;2023-02-25T07:13:43;96801.88;;;1.96;100.00
75650;BME280;64245;51.282;22.494;2023-02-25T07:16:10;96815.66;;;2.17;100.00
75650;BME280;64245;51.282;22.494;2023-02-25T07:18:36;96805.16;;;2.07;99.72
75650;BME280;64245;51.282;22.494;2023-02-25T07:21:01;96817.47;;;2.17;99.66
75650;BME280;64245;51.282;22.494;2023-02-25T07:23:27;96807.13;;;2.05;99.17
75650;BME280;64245;51.282;22.494;2023-02-25T07:25:52;96796.50;;;2.05;100.00
75650;BME280;64245;51.282;22.494;2023-02-25T07:28:18;96804.22;;;2.17;98.79
75650;BME280;64245;51.282;22.494;2023-02-25T07:30:44;96818.16;;;2.19;99.33
75650;BME280;64245;51.282;22.494;2023-02-25T07:33:10;96793.38;;;2.10;99.13
75650;BME280;64245;51.282;22.494;2023-02-25T07:35:35;96796.66;;;2.04;99.35
75650;BME280;64245;51.282;22.494;2023-02-25T07:38:01;96807.25;;;2.04;99.49
75650;BME280;64245;51.282;22.494;2023-02-25T07:40:27;96818.47;;;1.98;99.65
75650;BME280;64245;51.282;22.494;2023-02-25T07:42:53;96818.88;;;2.03;99.62
75650;BME280;64245;51.282;22.494;2023-02-25T07:45:18;96843.88;;;2.18;100.00
75650;BME280;64245;51.282;22.494;2023-02-25T07:47:44;96828.19;;;1.89;98.61
75650;BME280;64245;51.282;22.494;2023-02-25T07:50:10;96834.84;;;1.93;98.92
75650;BME280;64245;51.282;22.494;2023-02-25T07:52:36;96824.78;;;1.79;98.74
75650;BME280;64245;51.282;22.494;2023-02-25T07:55:04;96838.81;;;1.89;99.06
75650;BME280;64245;51.282;22.494;2023-02-25T07:57:30;96836.66;;;1.93;99.20
75650;BME280;64245;51.282;22.494;2023-02-25T07:59:56;96811.66;;;1.78;99.52
75650;BME280;64245;51.282;22.494;2023-02-25T08:02:24;96808.25;;;1.85;98.87
75650;BME280;64245;51.282;22.494;2023-02-25T08:04:50;96820.59;;;1.94;98.98
75650;BME280;64245;51.282;22.494;2023-02-25T08:07:16;96829.94;;;1.98;98.33
75650;BME280;64245;51.282;22.494;2023-02-25T08:09:42;96840.09;;;2.03;98.48
75650;BME280;64245;51.282;22.494;2023-02-25T08:12:08;96848.50;;;2.16;99.43
75650;BME280;64245;51.282;22.494;2023-02-25T08:14:34;96825.16;;;2.02;99.07
75650;BME280;64245;51.282;22.494;2023-02-25T08:17:01;96846.47;;;2.10;98.94
75650;BME280;64245;51.282;22.494;2023-02-25T08:19:27;96847.63;;;2.07;98.16
75650;BME280;64245;51.282;22.494;2023-02-25T08:21:53;96831.44;;;2.01;97.89
75650;BME280;64245;51.282;22.494;2023-02-25T08:24:22;96842.66;;;1.95;97.30
75650;BME280;64245;51.282;22.494;2023-02-25T08:26:48;96853.38;;;2.03;96.12
75650;BME280;64245;51.282;22.494;2023-02-25T08:29:14;96825.69;;;1.88;93.96
75650;BME280;64245;51.282;22.494;2023-02-25T08:31:40;96847.09;;;2.04;94.72
75650;BME280;64245;51.282;22.494;2023-02-25T08:34:05;96844.19;;;1.97;94.49
75650;BME280;64245;51.282;22.494;2023-02-25T08:36:32;96855.50;;;1.99;92.43
75650;BME280;64245;51.282;22.494;2023-02-25T08:38:58;96850.94;;;1.92;91.10
75650;BME280;64245;51.282;22.494;2023-02-25T08:41:26;96860.25;;;1.96;92.76
75650;BME280;64245;51.282;22.494;2023-02-25T08:43:53;96872.78;;;2.03;92.21
75650;BME280;64245;51.282;22.494;2023-02-25T08:46:25;96869.44;;;2.01;93.37
75650;BME280;64245;51.282;22.494;2023-02-25T08:48:52;96865.91;;;2.11;91.96
75650;BME280;64245;51.282;22.494;2023-02-25T08:51:19;96873.53;;;2.14;92.95
75650;BME280;64245;51.282;22.494;2023-02-25T08:53:46;96842.06;;;2.01;94.11
75650;BME280;64245;51.282;22.494;2023-02-25T08:56:14;96861.78;;;2.16;92.16
75650;BME280;64245;51.282;22.494;2023-02-25T08:58:41;96864.09;;;2.11;93.30
75650;BME280;64245;51.282;22.494;2023-02-25T09:01:11;96869.91;;;2.15;95.01
75650;BME280;64245;51.282;22.494;2023-02-25T09:03:39;96876.44;;;2.20;95.53
75650;BME280;64245;51.282;22.494;2023-02-25T09:06:05;96872.09;;;2.37;92.93
75650;BME280;64245;51.282;22.494;2023-02-25T09:08:31;96873.31;;;2.42;94.72
75650;BME280;64245;51.282;22.494;2023-02-25T09:10:57;96871.91;;;2.56;91.98
75650;BME280;64245;51.282;22.494;2023-02-25T09:13:22;96843.38;;;2.58;91.67
75650;BME280;64245;51.282;22.494;2023-02-25T09:15:57;96870.22;;;2.73;91.35
75650;BME280;64245;51.282;22.494;2023-02-25T09:18:23;96865.84;;;2.90;90.81
75650;BME280;64245;51.282;22.494;2023-02-25T09:20:49;96861.00;;;3.11;91.10
75650;BME280;64245;51.282;22.494;2023-02-25T09:23:15;96843.50;;;3.00;91.61
75650;BME280;64245;51.282;22.494;2023-02-25T09:25:41;96851.25;;;2.94;91.59
75650;BME280;64245;51.282;22.494;2023-02-25T09:28:09;96848.06;;;2.90;90.85
75650;BME280;64245;51.282;22.494;2023-02-25T09:30:35;96879.44;;;3.12;89.50
75650;BME280;64245;51.282;22.494;2023-02-25T09:33:00;96868.59;;;3.32;89.72
75650;BME280;64245;51.282;22.494;2023-02-25T09:35:27;96839.97;;;3.26;90.67
75650;BME280;64245;51.282;22.494;2023-02-25T09:37:52;96850.88;;;3.15;88.51
75650;BME280;64245;51.282;22.494;2023-02-25T09:40:18;96856.09;;;3.24;89.29
75650;BME280;64245;51.282;22.494;2023-02-25T09:43:00;96856.72;;;3.18;88.07
75650;BME280;64245;51.282;22.494;2023-02-25T09:45:30;96852.75;;;3.22;88.46
75650;BME280;64245;51.282;22.494;2023-02-25T09:47:59;96856.56;;;3.20;86.79
75650;BME280;64245;51.282;22.494;2023-02-25T09:50:35;96845.47;;;3.24;87.61
75650;BME280;64245;51.282;22.494;2023-02-25T09:53:18;96847.88;;;3.52;87.96
75650;BME280;64245;51.282;22.494;2023-02-25T09:55:51;96820.38;;;3.77;85.83
75650;BME280;64245;51.282;22.494;2023-02-25T09:58:31;96844.53;;;4.08;85.14
75650;BME280;64245;51.282;22.494;2023-02-25T10:01:54;96837.53;;;3.91;83.70
75650;BME280;64245;51.282;22.494;2023-02-25T10:04:15;96827.56;;;3.85;83.54
75650;BME280;64245;51.282;22.494;2023-02-25T10:06:48;96837.00;;;3.87;82.97
75650;BME280;64245;51.282;22.494;2023-02-25T10:12:33;96841.59;;;4.19;84.76
75650;BME280;64245;51.282;22.494;2023-02-25T10:15:22;96840.09;;;4.16;84.44
75650;BME280;64245;51.282;22.494;2023-02-25T10:20:51;96839.13;;;3.59;82.01
75650;BME280;64245;51.282;22.494;2023-02-25T10:23:26;96837.91;;;3.45;81.78
75650;BME280;64245;51.282;22.494;2023-02-25T10:28:34;96811.09;;;4.05;79.69
75650;BME280;64245;51.282;22.494;2023-02-25T10:31:06;96807.44;;;4.47;78.62
75650;BME280;64245;51.282;22.494;2023-02-25T10:33:35;96824.06;;;4.90;76.90
75650;BME280;64245;51.282;22.494;2023-02-25T10:36:08;96819.84;;;5.19;75.19
75650;BME280;64245;51.282;22.494;2023-02-25T10:38:38;96804.28;;;5.23;73.85
75650;BME280;64245;51.282;22.494;2023-02-25T10:41:06;96794.16;;;5.58;72.66
75650;BME280;64245;51.282;22.494;2023-02-25T10:43:33;96808.78;;;5.70;71.08
75650;BME280;64245;51.282;22.494;2023-02-25T10:48:28;96821.63;;;6.28;75.46
75650;BME280;64245;51.282;22.494;2023-02-25T10:51:11;96804.59;;;5.36;72.58
75650;BME280;64245;51.282;22.494;2023-02-25T10:54:05;96816.22;;;4.88;75.96
75650;BME280;64245;51.282;22.494;2023-02-25T10:56:38;96809.19;;;5.03;77.33
75650;BME280;64245;51.282;22.494;2023-02-25T10:59:23;96808.09;;;4.65;78.53
75650;BME280;64245;51.282;22.494;2023-02-25T11:01:50;96809.94;;;4.57;78.01
75650;BME280;64245;51.282;22.494;2023-02-25T11:04:19;96812.06;;;4.94;77.63
75650;BME280;64245;51.282;22.494;2023-02-25T11:06:47;96809.09;;;4.80;77.51
75650;BME280;64245;51.282;22.494;2023-02-25T11:11:56;96815.78;;;4.52;78.71
75650;BME280;64245;51.282;22.494;2023-02-25T11:14:27;96818.09;;;4.47;80.86
75650;BME280;64245;51.282;22.494;2023-02-25T11:17:06;96810.63;;;4.34;82.19
75650;BME280;64245;51.282;22.494;2023-02-25T11:19:42;96813.88;;;4.93;82.64
75650;BME280;64245;51.282;22.494;2023-02-25T11:22:15;96810.19;;;5.80;82.93
75650;BME280;64245;51.282;22.494;2023-02-25T11:24:44;96806.72;;;6.11;75.15
75650;BME280;64245;51.282;22.494;2023-02-25T11:27:31;96789.06;;;6.02;75.81
75650;BME280;64245;51.282;22.494;2023-02-25T11:30:03;96785.13;;;6.35;72.62
75650;BME280;64245;51.282;22.494;2023-02-25T11:32:30;96787.22;;;6.48;71.54
75650;BME280;64245;51.282;22.494;2023-02-25T11:35:05;96768.75;;;7.49;68.22
75650;BME280;64245;51.282;22.494;2023-02-25T11:37:39;96776.19;;;7.54;68.66
75650;BME280;64245;51.282;22.494;2023-02-25T11:40:24;96795.13;;;7.52;69.19
75650;BME280;64245;51.282;22.494;2023-02-25T11:43:20;96792.22;;;7.47;68.80
75650;BME280;64245;51.282;22.494;2023-02-25T11:48:23;96770.38;;;6.02;71.52
75650;BME280;64245;51.282;22.494;2023-02-25T11:51:23;96772.06;;;5.33;74.44
75650;BME280;64245;51.282;22.494;2023-02-25T11:56:58;96787.44;;;5.62;76.46
75650;BME280;64245;51.282;22.494;2023-02-25T12:07:48;96802.25;;;4.70;85.77
75650;BME280;64245;51.282;22.494;2023-02-25T12:10:36;96788.28;;;4.60;85.37
75650;BME280;64245;51.282;22.494;2023-02-25T12:24:35;96809.41;;;3.88;88.80
75650;BME280;64245;51.282;22.494;2023-02-25T12:30:35;96785.13;;;3.25;92.04
75650;BME280;64245;51.282;22.494;2023-02-25T12:35:54;96771.66;;;4.01;89.15
75650;BME280;64245;51.282;22.494;2023-02-25T12:41:45;96793.28;;;4.46;89.21
75650;BME280;64245;51.282;22.494;2023-02-25T12:44:18;96804.75;;;4.06;89.35
75650;BME280;64245;51.282;22.494;2023-02-25T12:47:04;96815.63;;;3.55;91.21
75650;BME280;64245;51.282;22.494;2023-02-25T13:04:52;96805.69;;;2.89;93.60
75650;BME280;64245;51.282;22.494;2023-02-25T13:13:17;96821.41;;;3.08;92.53
75650;BME280;64245;51.282;22.494;2023-02-25T13:18:44;96822.25;;;4.09;86.99
75650;BME280;64245;51.282;22.494;2023-02-25T13:24:38;96815.41;;;4.63;81.91
75650;BME280;64245;51.282;22.494;2023-02-25T13:27:15;96813.59;;;5.35;83.00
75650;BME280;64245;51.282;22.494;2023-02-25T13:41:17;96796.44;;;4.50;78.89
75650;BME280;64245;51.282;22.494;2023-02-25T13:47:08;96827.06;;;4.62;82.41
75650;BME280;64245;51.282;22.494;2023-02-25T13:52:28;96817.91;;;4.65;78.18
75650;BME280;64245;51.282;22.494;2023-02-25T14:01:09;96822.78;;;4.53;79.24
75650;BME280;64245;51.282;22.494;2023-02-25T14:06:34;96842.91;;;4.31;80.71
75650;BME280;64245;51.282;22.494;2023-02-25T14:09:20;96839.09;;;4.18;80.06
75650;BME280;64245;51.282;22.494;2023-02-25T14:12:00;96844.72;;;4.14;79.61
75650;BME280;64245;51.282;22.494;2023-02-25T14:17:27;96830.22;;;3.85;79.88
75650;BME280;64245;51.282;22.494;2023-02-25T14:20:35;96841.19;;;3.81;79.54
75650;BME280;64245;51.282;22.494;2023-02-25T14:31:25;96883.56;;;3.75;81.82
75650;BME280;64245;51.282;22.494;2023-02-25T14:34:14;96907.91;;;2.51;90.13
75650;BME280;64245;51.282;22.494;2023-02-25T14:36:56;96918.03;;;1.57;94.32
75650;BME280;64245;51.282;22.494;2023-02-25T14:45:24;96913.41;;;0.85;97.81
75650;BME280;64245;51.282;22.494;2023-02-25T14:51:13;96894.28;;;0.81;97.62
75650;BME280;64245;51.282;22.494;2023-02-25T14:54:05;96885.66;;;0.79;98.13
75650;BME280;64245;51.282;22.494;2023-02-25T15:02:08;96904.06;;;1.27;96.56
75650;BME280;64245;51.282;22.494;2023-02-25T15:10:30;96941.53;;;1.42;96.94
75650;BME280;64245;51.282;22.494;2023-02-25T15:19:09;96954.53;;;1.35;97.92
75650;BME280;64245;51.282;22.494;2023-02-25T15:21:42;96939.66;;;1.25;98.27
75650;BME280;64245;51.282;22.494;2023-02-25T15:26:56;96951.75;;;1.37;98.17
75650;BME280;64245;51.282;22.494;2023-02-25T15:39:57;96971.22;;;1.55;96.50
75650;BME280;64245;51.282;22.494;2023-02-25T15:42:45;96982.53;;;1.57;96.23
75650;BME280;64245;51.282;22.494;2023-02-25T15:55:50;96988.53;;;1.59;97.76
75650;BME280;64245;51.282;22.494;2023-02-25T16:00:58;96964.84;;;1.48;96.70
75650;BME280;64245;51.282;22.494;2023-02-25T16:08:56;96991.28;;;1.21;97.99
75650;BME280;64245;51.282;22.494;2023-02-25T16:14:11;97002.91;;;1.10;98.35
75650;BME280;64245;51.282;22.494;2023-02-25T16:16:46;97002.63;;;1.13;97.87
75650;BME280;64245;51.282;22.494;2023-02-25T16:19:16;97019.22;;;1.15;98.74
75650;BME280;64245;51.282;22.494;2023-02-25T16:21:51;96996.34;;;1.04;98.54
75650;BME280;64245;51.282;22.494;2023-02-25T16:24:18;97009.03;;;1.11;98.53